Time;durP1;ratioP1;P1;durP2;ratioP2;P2;SDS_P1;SDS_P2;PMS_P1;PMS_P2;Temp;Humidity;BMP_temperature;BMP_pressure;BME280_temperature;BME280_humidity;BME280_pressure;Samples;Min_cycle;Max_cycle;Signal;HPM_P1;HPM_P2
2022/04/15 00:02:05;;;;;;;5.72;2.75;;;10.20;99.90;;;;;;612441;233;26851;-72
2022/04/15 00:04:34;;;;;;;4.12;2.83;;;10.10;99.90;;;;;;612462;233;26636;-72
2022/04/15 00:07:00;;;;;;;4.53;4.12;;;10.10;99.90;;;;;;612413;235;27299;-72
2022/04/15 00:09:27;;;;;;;2.72;2.30;;;10.10;99.90;;;;;;612418;233;26616;-72
2022/04/15 00:11:56;;;;;;;2.62;2.42;;;10.10;99.90;;;;;;612469;235;26823;-72
2022/04/15 00:14:21;;;;;;;4.57;2.92;;;10.10;99.90;;;;;;612405;235;26575;-72
2022/04/15 00:16:49;;;;;;;3.85;2.72;;;10.00;99.90;;;;;;612400;233;27280;-72
2022/04/15 00:19:17;;;;;;;3.40;3.10;;;10.00;99.90;;;;;;612495;233;26613;-72
2022/04/15 00:21:45;;;;;;;3.65;3.35;;;9.90;99.90;;;;;;612472;233;26600;-72
2022/04/15 00:24:13;;;;;;;3.08;2.78;;;9.90;99.90;;;;;;612486;235;26617;-72
2022/04/15 00:26:40;;;;;;;4.18;3.65;;;9.90;99.90;;;;;;612374;235;26897;-72
2022/04/15 00:29:08;;;;;;;4.03;3.58;;;10.00;99.90;;;;;;612501;235;26818;-73
2022/04/15 00:31:35;;;;;;;3.30;2.50;;;10.00;99.90;;;;;;613559;232;26608;-72
2022/04/15 00:34:02;;;;;;;2.65;2.45;;;10.10;99.90;;;;;;613748;232;26826;-72
2022/04/15 00:36:29;;;;;;;3.87;3.58;;;10.10;99.90;;;;;;613339;227;26576;-72
2022/04/15 00:38:56;;;;;;;2.72;2.53;;;10.20;99.90;;;;;;613384;232;27129;-72
2022/04/15 00:41:24;;;;;;;4.00;3.70;;;10.30;99.90;;;;;;613091;232;26599;-72
2022/04/15 00:43:53;;;;;;;2.60;2.40;;;10.30;99.90;;;;;;613019;233;26627;-72
2022/04/15 00:46:20;;;;;;;3.42;3.12;;;10.30;99.90;;;;;;613044;233;26634;-72
2022/04/15 00:48:48;;;;;;;5.80;4.80;;;10.40;99.90;;;;;;612971;233;26635;-72
2022/04/15 00:51:16;;;;;;;4.15;3.05;;;10.40;99.90;;;;;;612767;233;26560;-73
2022/04/15 00:53:44;;;;;;;5.15;2.75;;;10.30;99.90;;;;;;612761;233;26762;-72
2022/04/15 00:56:11;;;;;;;2.97;2.42;;;10.40;99.90;;;;;;612615;232;26579;-72
2022/04/15 00:58:38;;;;;;;3.83;3.42;;;10.40;99.90;;;;;;612749;233;26897;-72
2022/04/15 01:01:05;;;;;;;3.05;2.70;;;10.40;99.90;;;;;;612669;234;26563;-72
2022/04/15 01:03:33;;;;;;;2.80;2.58;;;10.40;99.90;;;;;;612753;234;26891;-72
2022/04/15 01:06:01;;;;;;;2.20;2.00;;;10.40;99.90;;;;;;612755;234;26603;-72
2022/04/15 01:08:29;;;;;;;4.82;4.45;;;10.30;99.90;;;;;;612319;235;26675;-72
2022/04/15 01:10:58;;;;;;;4.72;4.30;;;10.30;99.90;;;;;;612407;235;26626;-72
2022/04/15 01:13:25;;;;;;;5.20;3.62;;;10.30;99.90;;;;;;612386;234;26633;-72
2022/04/15 01:15:52;;;;;;;5.37;4.87;;;10.30;99.90;;;;;;612448;235;26595;-72
2022/04/15 01:18:19;;;;;;;2.55;2.37;;;10.20;99.90;;;;;;612453;233;26572;-72
2022/04/15 01:20:49;;;;;;;3.45;3.10;;;10.20;99.90;;;;;;612500;233;26855;-72
2022/04/15 01:23:16;;;;;;;5.00;4.50;;;10.20;99.90;;;;;;612475;233;26636;-72
2022/04/15 01:25:44;;;;;;;3.08;2.85;;;10.20;99.90;;;;;;612367;229;26862;-71
2022/04/15 01:28:11;;;;;;;5.03;4.62;;;10.10;99.90;;;;;;612429;233;26616;-72
2022/04/15 01:30:38;;;;;;;5.28;4.78;;;10.10;99.90;;;;;;612482;233;26812;-72
2022/04/15 01:33:05;;;;;;;3.72;3.45;;;10.00;99.90;;;;;;612533;233;26560;-72
2022/04/15 01:35:33;;;;;;;4.15;3.80;;;10.00;99.90;;;;;;612435;234;27207;-72
2022/04/15 01:38:02;;;;;;;4.03;3.72;;;10.00;99.90;;;;;;612443;233;26637;-72
2022/04/15 01:40:27;;;;;;;2.60;2.40;;;9.80;99.90;;;;;;612721;235;26608;-72
2022/04/15 01:42:54;;;;;;;3.08;2.78;;;9.70;99.90;;;;;;613439;232;26602;-72
2022/04/15 01:45:22;;;;;;;3.75;3.45;;;9.60;99.90;;;;;;613713;233;26820;-72
2022/04/15 01:47:52;;;;;;;3.25;2.90;;;9.40;99.90;;;;;;613466;234;26828;-71
2022/04/15 01:50:17;;;;;;;3.25;2.95;;;9.10;99.90;;;;;;613175;234;26567;-72
2022/04/15 01:52:45;;;;;;;4.78;4.28;;;9.00;99.90;;;;;;613066;232;26566;-64
2022/04/15 01:55:13;;;;;;;2.75;2.40;;;9.00;99.90;;;;;;613015;233;26583;-64
2022/04/15 01:57:40;;;;;;;2.65;2.40;;;8.90;99.90;;;;;;613009;233;26626;-64
2022/04/15 02:00:08;;;;;;;2.47;2.28;;;8.80;99.90;;;;;;612973;234;26600;-64
2022/04/15 02:02:35;;;;;;;4.75;3.33;;;8.80;99.90;;;;;;612804;235;26547;-64
2022/04/15 02:05:02;;;;;;;3.40;2.95;;;8.80;99.90;;;;;;612739;233;26814;-64
2022/04/15 02:07:30;;;;;;;3.05;2.75;;;8.80;99.90;;;;;;612730;233;26800;-64
2022/04/15 02:09:58;;;;;;;3.03;2.78;;;8.50;99.90;;;;;;612778;235;26563;-64
2022/04/15 02:12:25;;;;;;;4.00;3.45;;;8.50;99.90;;;;;;612731;235;26789;-64
2022/04/15 02:14:52;;;;;;;2.30;2.10;;;8.50;99.90;;;;;;612741;233;26560;-64
2022/04/15 02:17:21;;;;;;;2.55;2.35;;;8.40;99.90;;;;;;612686;234;26825;-64
2022/04/15 02:19:46;;;;;;;5.70;4.15;;;8.50;99.90;;;;;;612350;228;26589;-64
2022/04/15 02:22:13;;;;;;;2.25;2.05;;;8.50;99.90;;;;;;612459;235;26621;-64
2022/04/15 02:24:41;;;;;;;2.70;2.50;;;8.50;99.90;;;;;;612462;235;26608;-64
2022/04/15 02:27:09;;;;;;;3.58;3.28;;;8.50;99.90;;;;;;612437;233;26690;-64
2022/04/15 02:29:36;;;;;;;3.12;2.92;;;8.50;99.90;;;;;;612471;235;26617;-64
2022/04/15 02:32:04;;;;;;;2.87;2.67;;;8.50;99.90;;;;;;612458;233;26855;-64
2022/04/15 02:34:31;;;;;;;2.67;2.47;;;8.50;99.90;;;;;;612458;235;26612;-64
2022/04/15 02:36:58;;;;;;;6.28;3.50;;;8.40;99.90;;;;;;612455;233;26857;-64
2022/04/15 02:39:25;;;;;;;2.50;2.30;;;8.30;99.90;;;;;;612484;234;26579;-64
2022/04/15 02:41:54;;;;;;;3.40;3.10;;;8.10;99.90;;;;;;612478;235;26836;-64
2022/04/15 02:44:20;;;;;;;3.45;2.67;;;8.00;99.90;;;;;;612341;235;26587;-64
2022/04/15 02:46:48;;;;;;;2.78;2.58;;;8.00;99.90;;;;;;612384;233;26636;-64
2022/04/15 02:49:15;;;;;;;2.60;2.40;;;8.00;99.90;;;;;;612481;235;26614;-64
2022/04/15 02:51:42;;;;;;;2.85;2.05;;;8.00;99.90;;;;;;612501;233;26902;-64
2022/04/15 02:54:09;;;;;;;3.25;2.97;;;8.10;99.90;;;;;;613150;232;26610;-64
2022/04/15 02:56:37;;;;;;;2.33;2.12;;;8.10;99.90;;;;;;613815;232;26659;-64
2022/04/15 02:59:05;;;;;;;3.30;3.10;;;8.10;99.90;;;;;;613439;232;26824;-64
2022/04/15 03:01:32;;;;;;;3.47;3.17;;;8.20;99.90;;;;;;613316;233;26559;-63
2022/04/15 03:03:59;;;;;;;4.07;2.20;;;8.30;99.90;;;;;;613120;233;26944;-63
2022/04/15 03:06:27;;;;;;;3.58;3.22;;;8.20;99.90;;;;;;613079;233;26856;-63
2022/04/15 03:08:55;;;;;;;2.62;2.53;;;8.20;99.90;;;;;;613011;233;26818;-63
2022/04/15 03:11:22;;;;;;;2.90;2.70;;;8.20;99.90;;;;;;613056;233;26832;-64
2022/04/15 03:13:50;;;;;;;2.70;2.50;;;8.30;99.90;;;;;;612690;233;26580;-63
2022/04/15 03:16:18;;;;;;;2.95;2.75;;;8.40;99.90;;;;;;612750;233;26582;-64
2022/04/15 03:18:45;;;;;;;2.62;2.42;;;8.30;99.90;;;;;;612786;233;26590;-63
2022/04/15 03:21:12;;;;;;;2.95;2.70;;;8.40;99.90;;;;;;612768;234;26559;-63
2022/04/15 03:23:42;;;;;;;2.35;2.15;;;8.40;99.90;;;;;;612786;233;26797;-64
2022/04/15 03:26:07;;;;;;;2.90;2.12;;;8.40;99.90;;;;;;612654;234;26645;-64
2022/04/15 03:28:34;;;;;;;2.62;2.25;;;8.40;99.90;;;;;;612728;233;26801;-63
2022/04/15 03:31:01;;;;;;;2.90;2.70;;;8.40;99.90;;;;;;612533;233;26552;-63
2022/04/15 03:33:28;;;;;;;2.75;2.53;;;8.40;99.90;;;;;;612463;235;26574;-63
2022/04/15 03:35:56;;;;;;;1.95;1.85;;;8.40;99.90;;;;;;612420;235;26604;-63
2022/04/15 03:38:24;;;;;;;2.37;2.17;;;8.40;99.90;;;;;;612448;235;26589;-63
2022/04/15 03:40:52;;;;;;;3.55;3.25;;;8.40;99.90;;;;;;612434;234;26806;-63
2022/04/15 03:43:19;;;;;;;4.10;3.75;;;8.40;99.90;;;;;;612445;235;26607;-63
2022/04/15 03:45:46;;;;;;;2.87;2.25;;;8.30;99.90;;;;;;612424;234;26915;-64
2022/04/15 03:48:13;;;;;;;2.90;2.53;;;8.20;99.90;;;;;;612445;235;26607;-64
2022/04/15 03:50:40;;;;;;;3.45;3.15;;;8.30;99.90;;;;;;612472;235;26923;-63
2022/04/15 03:53:08;;;;;;;2.30;2.10;;;8.20;99.90;;;;;;612446;235;26537;-63
2022/04/15 03:55:36;;;;;;;3.53;3.25;;;8.20;99.90;;;;;;612406;233;26616;-64
2022/04/15 03:58:04;;;;;;;2.95;2.70;;;8.20;99.90;;;;;;612486;234;26624;-64
2022/04/15 04:00:32;;;;;;;3.15;2.95;;;8.10;99.90;;;;;;612492;235;26572;-64
2022/04/15 04:02:59;;;;;;;2.20;2.00;;;8.20;99.90;;;;;;612410;235;27276;-64
2022/04/15 04:05:27;;;;;;;2.72;2.53;;;8.20;99.90;;;;;;612941;232;26605;-64
2022/04/15 04:07:54;;;;;;;2.03;1.92;;;8.20;99.90;;;;;;613865;234;26876;-64
2022/04/15 04:10:21;;;;;;;3.15;2.95;;;8.30;99.90;;;;;;613497;234;26568;-64
2022/04/15 04:12:48;;;;;;;3.28;2.42;;;8.30;99.90;;;;;;613314;234;26552;-64
2022/04/15 04:15:16;;;;;;;2.47;2.37;;;8.20;99.90;;;;;;613151;228;26614;-64
2022/04/15 04:17:46;;;;;;;3.65;3.42;;;8.20;99.90;;;;;;613051;234;26648;-62
2022/04/15 04:20:12;;;;;;;4.15;3.22;;;8.20;99.90;;;;;;613299;235;26829;-62
2022/04/15 04:22:38;;;;;;;3.80;3.50;;;8.20;99.90;;;;;;613408;233;26575;-63
2022/04/15 04:25:08;;;;;;;4.22;3.25;;;8.30;99.90;;;;;;613134;233;26788;-63
2022/04/15 04:27:34;;;;;;;7.80;3.03;;;8.20;99.90;;;;;;612895;234;26576;-63
2022/04/15 04:30:01;;;;;;;4.93;3.35;;;8.30;99.90;;;;;;612653;234;26815;-63
2022/04/15 04:32:28;;;;;;;2.45;1.65;;;8.20;99.90;;;;;;612784;233;26565;-62
2022/04/15 04:34:55;;;;;;;2.25;2.15;;;8.30;99.90;;;;;;612656;233;27150;-63
2022/04/15 04:37:23;;;;;;;2.40;2.22;;;8.30;99.90;;;;;;612715;234;26591;-63
2022/04/15 04:39:51;;;;;;;2.12;2.00;;;8.30;99.90;;;;;;612778;233;26564;-63
2022/04/15 04:42:18;;;;;;;3.62;3.33;;;8.30;99.90;;;;;;612574;233;26563;-63
2022/04/15 04:44:46;;;;;;;2.85;1.80;;;8.30;99.90;;;;;;612441;235;26676;-63
2022/04/15 04:47:13;;;;;;;3.30;3.10;;;8.30;99.90;;;;;;612446;233;26640;-62
2022/04/15 04:49:40;;;;;;;3.97;3.67;;;8.30;99.90;;;;;;612441;233;26611;-62
2022/04/15 04:52:08;;;;;;;2.78;2.58;;;8.30;99.90;;;;;;612379;228;27214;-63
2022/04/15 04:54:35;;;;;;;3.12;2.92;;;8.30;99.90;;;;;;612401;233;26876;-62
2022/04/15 04:57:04;;;;;;;2.00;1.90;;;8.30;99.90;;;;;;612455;233;26571;-63
2022/04/15 04:59:32;;;;;;;2.47;2.28;;;8.30;99.90;;;;;;612446;235;26636;-63
2022/04/15 05:01:58;;;;;;;4.37;2.95;;;8.30;99.90;;;;;;612390;233;27062;-63
2022/04/15 05:04:25;;;;;;;3.00;2.80;;;8.30;99.90;;;;;;612393;233;26580;-63
2022/04/15 05:06:52;;;;;;;1.80;1.70;;;8.40;99.90;;;;;;612434;234;26627;-63
2022/04/15 05:09:21;;;;;;;3.95;2.67;;;8.40;99.90;;;;;;612443;235;26651;-63
2022/04/15 05:11:48;;;;;;;1.95;1.85;;;8.40;99.90;;;;;;612377;235;26608;-62
2022/04/15 05:14:17;;;;;;;3.92;1.50;;;8.50;99.90;;;;;;612440;233;26614;-62
2022/04/15 05:16:43;;;;;;;3.28;3.08;;;8.50;99.90;;;;;;612548;232;26651;-62
2022/04/15 05:19:10;;;;;;;2.08;1.98;;;8.50;99.90;;;;;;614021;232;27217;-62
2022/04/15 05:21:38;;;;;;;2.28;2.10;;;8.50;99.90;;;;;;613540;232;26550;-62
2022/04/15 05:24:06;;;;;;;3.30;3.00;;;8.50;99.90;;;;;;613325;232;26790;-62
2022/04/15 05:26:33;;;;;;;2.97;2.78;;;8.50;99.90;;;;;;613253;228;26653;-63
2022/04/15 05:29:01;;;;;;;3.30;3.08;;;8.60;99.90;;;;;;612927;234;26634;-62
2022/04/15 05:31:28;;;;;;;2.42;2.10;;;8.60;99.90;;;;;;613033;233;26837;-62
2022/04/15 05:33:55;;;;;;;2.70;2.08;;;8.60;99.90;;;;;;613019;234;26613;-63
2022/04/15 05:36:22;;;;;;;2.67;1.50;;;8.60;99.90;;;;;;612764;233;26845;-62
2022/04/15 05:38:50;;;;;;;2.72;2.53;;;8.60;99.90;;;;;;612739;233;26560;-63
2022/04/15 05:41:18;;;;;;;2.22;2.00;;;8.60;99.90;;;;;;612786;234;26559;-62
2022/04/15 05:43:46;;;;;;;3.08;2.87;;;8.60;99.90;;;;;;612699;233;26583;-63
2022/04/15 05:46:13;;;;;;;2.00;1.90;;;8.70;99.90;;;;;;613075;234;26598;-63
2022/04/15 05:48:40;;;;;;;2.80;2.60;;;8.70;99.90;;;;;;613137;235;26778;-62
2022/04/15 05:51:07;;;;;;;2.00;1.90;;;8.70;99.90;;;;;;613142;233;26539;-63
2022/04/15 05:53:34;;;;;;;1.87;1.73;;;8.80;99.90;;;;;;612957;233;26557;-62
2022/04/15 05:56:02;;;;;;;3.10;1.67;;;8.80;99.90;;;;;;612809;233;26604;-62
2022/04/15 05:58:29;;;;;;;1.95;1.85;;;8.80;99.90;;;;;;612612;234;26597;-63
2022/04/15 06:00:57;;;;;;;2.35;2.17;;;8.80;99.90;;;;;;612488;233;26556;-63
2022/04/15 06:03:25;;;;;;;2.25;2.05;;;8.90;99.90;;;;;;612446;233;26672;-63
2022/04/15 06:05:52;;;;;;;2.35;2.25;;;8.90;99.90;;;;;;612426;234;26552;-63
2022/04/15 06:08:19;;;;;;;2.45;2.28;;;9.00;99.90;;;;;;612549;235;26577;-62
2022/04/15 06:10:47;;;;;;;2.42;2.25;;;9.10;99.90;;;;;;612434;235;26627;-63
2022/04/15 06:13:14;;;;;;;2.45;1.42;;;9.00;99.90;;;;;;612469;235;26840;-63
2022/04/15 06:15:51;;;;;;;2.17;1.62;;;9.10;99.90;;;;;;612441;235;26604;-63
2022/04/15 06:18:08;;;;;;;3.70;1.90;;;9.20;99.90;;;;;;611819;235;26870;-63
2022/04/15 06:20:40;;;;;;;4.53;2.03;;;9.00;99.90;;;;;;613193;234;26524;-64
2022/04/15 06:23:04;;;;;;;2.15;1.95;;;9.00;99.90;;;;;;614814;231;26716;-64
2022/04/15 06:25:32;;;;;;;2.30;1.73;;;9.00;99.90;;;;;;618116;230;26612;-63
2022/04/15 06:28:00;;;;;;;3.08;2.00;;;9.10;99.90;;;;;;616219;231;26645;-63
2022/04/15 06:30:27;;;;;;;2.20;2.00;;;9.10;99.90;;;;;;614110;232;26606;-63
2022/04/15 06:32:54;;;;;;;2.12;1.92;;;9.10;99.90;;;;;;613649;232;26570;-63
2022/04/15 06:35:21;;;;;;;2.50;2.30;;;9.20;99.90;;;;;;613358;233;26840;-62
2022/04/15 06:37:49;;;;;;;5.00;1.90;;;9.10;99.90;;;;;;613210;234;26578;-63
2022/04/15 06:40:16;;;;;;;4.28;2.10;;;9.10;99.90;;;;;;612992;234;26621;-62
2022/04/15 06:42:44;;;;;;;2.22;2.08;;;9.20;99.90;;;;;;613054;233;26612;-64
2022/04/15 06:45:13;;;;;;;1.92;1.83;;;9.30;99.90;;;;;;613001;233;26625;-63
2022/04/15 06:47:40;;;;;;;2.87;1.92;;;9.30;99.90;;;;;;612756;234;26890;-63
2022/04/15 06:50:07;;;;;;;2.83;2.28;;;9.30;99.90;;;;;;612708;233;26782;-63
2022/04/15 06:52:35;;;;;;;3.28;2.17;;;9.30;99.90;;;;;;612783;233;26581;-63
2022/04/15 06:55:04;;;;;;;2.33;2.12;;;9.40;99.90;;;;;;612671;233;27219;-63
2022/04/15 06:57:31;;;;;;;3.37;2.30;;;9.20;99.90;;;;;;612768;234;26580;-63
2022/04/15 06:59:58;;;;;;;2.60;1.90;;;9.20;99.90;;;;;;612647;234;26810;-63
2022/04/15 07:02:26;;;;;;;2.70;2.50;;;9.20;99.90;;;;;;613987;230;26561;-62
2022/04/15 07:04:54;;;;;;;2.62;2.20;;;9.20;99.90;;;;;;615927;230;26602;-62
2022/04/15 07:07:21;;;;;;;3.55;2.15;;;9.20;99.90;;;;;;619665;231;26631;-63
2022/04/15 07:09:50;;;;;;;3.62;1.95;;;9.20;99.90;;;;;;618162;230;26581;-62
2022/04/15 07:12:17;;;;;;;2.15;1.73;;;9.30;99.90;;;;;;615491;234;26547;-63
2022/04/15 07:14:44;;;;;;;3.37;2.35;;;9.40;99.90;;;;;;613438;234;26565;-62
2022/04/15 07:17:12;;;;;;;3.15;2.00;;;9.40;99.90;;;;;;615565;234;26833;-61
2022/04/15 07:19:40;;;;;;;4.93;2.20;;;9.40;99.90;;;;;;614203;231;26794;-62
2022/04/15 07:22:07;;;;;;;2.35;1.90;;;9.40;99.90;;;;;;619370;231;26609;-62
2022/04/15 07:24:34;;;;;;;2.58;2.22;;;9.50;99.90;;;;;;612538;231;27151;-62
2022/04/15 07:27:03;;;;;;;2.45;2.00;;;9.40;99.90;;;;;;615564;231;26572;-62
2022/04/15 07:29:30;;;;;;;2.25;1.90;;;9.40;99.90;;;;;;614286;231;26598;-62
2022/04/15 07:31:57;;;;;;;2.17;1.92;;;9.40;99.90;;;;;;615624;231;27153;-62
2022/04/15 07:34:26;;;;;;;3.15;2.42;;;9.20;99.90;;;;;;612480;230;26665;-63
2022/04/15 07:36:54;;;;;;;2.20;2.00;;;9.30;99.90;;;;;;612308;235;26604;-62
2022/04/15 07:39:22;;;;;;;2.20;2.10;;;9.40;99.90;;;;;;612457;235;26639;-62
2022/04/15 07:41:49;;;;;;;2.25;2.05;;;9.30;99.90;;;;;;616368;232;26641;-62
2022/04/15 07:44:17;;;;;;;4.00;2.05;;;9.50;99.90;;;;;;614399;232;26538;-62
2022/04/15 07:46:44;;;;;;;2.12;2.00;;;9.50;99.90;;;;;;615928;233;26554;-62
2022/04/15 07:49:11;;;;;;;2.45;2.25;;;9.50;99.90;;;;;;617885;231;26530;-62
2022/04/15 07:51:38;;;;;;;2.22;2.03;;;9.60;99.90;;;;;;618380;228;26588;-63
2022/04/15 07:54:06;;;;;;;2.60;2.40;;;9.50;99.90;;;;;;616338;232;26570;-63
2022/04/15 07:56:33;;;;;;;2.80;2.35;;;9.50;99.90;;;;;;613220;231;26927;-63
2022/04/15 07:59:01;;;;;;;1.95;1.73;;;9.30;99.90;;;;;;612854;233;26618;-63
2022/04/15 08:01:29;;;;;;;2.90;2.12;;;9.30;99.90;;;;;;612712;233;26843;-63
2022/04/15 08:03:56;;;;;;;2.40;2.20;;;9.30;99.90;;;;;;619585;231;26579;-63
2022/04/15 08:06:23;;;;;;;2.55;2.35;;;9.30;99.90;;;;;;613326;231;26815;-63
2022/04/15 08:08:54;;;;;;;2.33;2.10;;;9.50;99.90;;;;;;614821;232;26611;-63
2022/04/15 08:11:18;;;;;;;2.60;2.22;;;9.50;99.90;;;;;;618689;230;26539;-63
2022/04/15 08:13:46;;;;;;;2.25;2.05;;;9.50;99.90;;;;;;622015;230;26566;-63
2022/04/15 08:16:13;;;;;;;2.47;2.28;;;9.50;99.90;;;;;;615988;231;26878;-63
2022/04/15 08:18:40;;;;;;;3.87;2.20;;;9.50;99.90;;;;;;613300;233;26558;-63
2022/04/15 08:21:07;;;;;;;2.35;2.15;;;9.40;99.90;;;;;;616618;231;26815;-63
2022/04/15 08:23:34;;;;;;;2.58;2.12;;;9.60;99.90;;;;;;619072;231;26580;-63
2022/04/15 08:26:02;;;;;;;2.17;1.90;;;9.50;99.90;;;;;;620862;227;26685;-63
2022/04/15 08:28:30;;;;;;;2.50;2.30;;;9.60;99.90;;;;;;621428;231;26622;-63
2022/04/15 08:30:58;;;;;;;2.28;2.17;;;9.40;99.90;;;;;;619326;231;26624;-63
2022/04/15 08:33:25;;;;;;;2.05;1.95;;;9.40;99.90;;;;;;612461;233;26822;-65
2022/04/15 08:35:52;;;;;;;7.40;2.30;;;9.40;99.90;;;;;;612383;233;26625;-65
2022/04/15 08:38:19;;;;;;;9.98;2.35;;;9.30;99.90;;;;;;615066;232;27211;-65
2022/04/15 08:40:46;;;;;;;3.97;2.15;;;9.30;99.90;;;;;;613394;233;26552;-65
2022/04/15 08:43:14;;;;;;;1.98;1.87;;;9.40;99.90;;;;;;613859;234;26564;-65
2022/04/15 08:45:42;;;;;;;3.30;1.80;;;9.50;99.90;;;;;;612408;233;26595;-65
2022/04/15 08:48:10;;;;;;;4.07;2.17;;;9.60;99.90;;;;;;615258;234;26577;-65
2022/04/15 08:50:37;;;;;;;2.97;2.20;;;9.50;99.90;;;;;;614837;233;26762;-63
2022/04/15 08:53:04;;;;;;;2.60;2.10;;;9.60;99.90;;;;;;617619;231;26605;-65
2022/04/15 08:55:31;;;;;;;2.58;2.12;;;9.60;99.90;;;;;;616904;231;27289;-64
2022/04/15 08:57:59;;;;;;;3.10;2.22;;;9.40;99.90;;;;;;613639;231;26606;-64
2022/04/15 09:00:27;;;;;;;2.42;2.22;;;9.50;99.90;;;;;;620405;230;26574;-64
2022/04/15 09:02:55;;;;;;;2.65;2.17;;;9.50;99.90;;;;;;614230;233;26618;-64
2022/04/15 09:05:24;;;;;;;2.17;2.08;;;9.50;99.90;;;;;;619230;231;26561;-64
2022/04/15 09:08:06;;;;;;;4.00;2.25;;;9.40;99.90;;;;;;621548;230;26641;-64
2022/04/15 09:10:33;;;;;;;2.37;2.20;;;9.40;99.90;;;;;;621383;231;26595;-65
2022/04/15 09:13:01;;;;;;;2.20;2.08;;;9.30;99.90;;;;;;617695;231;26576;-65
2022/04/15 09:15:28;;;;;;;2.45;2.25;;;9.30;99.90;;;;;;614597;228;26810;-65
2022/04/15 09:17:59;;;;;;;2.47;2.17;;;9.30;99.90;;;;;;615920;227;26616;-64
2022/04/15 09:20:23;;;;;;;2.92;2.10;;;9.30;99.90;;;;;;622372;230;26822;-64
2022/04/15 09:22:53;;;;;;;2.55;2.00;;;9.50;99.90;;;;;;617802;231;26622;-64
2022/04/15 09:25:20;;;;;;;1.73;1.62;;;9.30;99.90;;;;;;616546;231;26568;-64
2022/04/15 09:27:47;;;;;;;2.65;2.10;;;9.30;99.90;;;;;;614686;233;26841;-64
2022/04/15 09:30:14;;;;;;;2.53;2.30;;;9.30;99.90;;;;;;619876;231;26656;-66
2022/04/15 09:32:42;;;;;;;2.05;1.80;;;9.30;99.90;;;;;;613293;233;26605;-65
2022/04/15 09:35:10;;;;;;;2.83;2.15;;;9.20;99.90;;;;;;615553;234;26796;-65
2022/04/15 09:37:39;;;;;;;2.00;1.90;;;9.20;99.90;;;;;;615554;234;26621;-65
2022/04/15 09:40:09;;;;;;;2.62;2.25;;;9.20;99.90;;;;;;612964;233;26560;-65
2022/04/15 09:42:37;;;;;;;2.28;2.08;;;9.20;99.90;;;;;;615708;233;26568;-65
2022/04/15 09:45:11;;;;;;;5.45;2.20;;;9.20;99.90;;;;;;617370;231;26773;-65
2022/04/15 09:47:39;;;;;;;1.98;1.83;;;9.20;99.90;;;;;;615919;231;26584;-65
2022/04/15 09:50:08;;;;;;;2.25;2.10;;;9.20;99.90;;;;;;613575;231;26798;-65
2022/04/15 09:52:35;;;;;;;3.10;2.37;;;9.30;99.90;;;;;;615613;231;26563;-66
2022/04/15 09:55:03;;;;;;;2.20;2.00;;;9.30;99.90;;;;;;617386;231;26844;-66
2022/04/15 09:57:33;;;;;;;2.30;2.10;;;9.30;99.90;;;;;;612513;233;26632;-63
2022/04/15 09:59:57;;;;;;;4.78;2.55;;;9.20;99.90;;;;;;619153;231;27306;-64
2022/04/15 10:02:24;;;;;;;8.35;2.33;;;9.20;99.90;;;;;;615085;231;26556;-64
2022/04/15 10:04:52;;;;;;;89.97;15.88;;;9.20;99.90;;;;;;617049;231;26590;-64
2022/04/15 10:07:19;;;;;;;1092.53;108.15;;;9.20;99.90;;;;;;617557;230;26919;-64
2022/04/15 10:09:47;;;;;;;1785.60;181.05;;;9.20;99.90;;;;;;615686;233;26548;-65
2022/04/15 10:12:14;;;;;;;1999.90;317.37;;;9.20;99.90;;;;;;614250;231;26897;-65
2022/04/15 10:14:41;;;;;;;1999.90;254.23;;;9.10;99.90;;;;;;619207;230;26618;-64
2022/04/15 10:17:09;;;;;;;1404.80;100.25;;;9.10;99.90;;;;;;614469;233;26634;-66
2022/04/15 10:19:36;;;;;;;66.18;20.17;;;9.00;99.90;;;;;;619840;231;26610;-64
2022/04/15 10:22:05;;;;;;;67.47;20.30;;;9.00;99.90;;;;;;621335;226;26816;-67
2022/04/15 10:24:31;;;;;;;56.67;17.67;;;9.00;99.90;;;;;;614219;233;26597;-66
2022/04/15 10:26:59;;;;;;;51.45;17.87;;;9.00;99.90;;;;;;612263;233;26864;-66
2022/04/15 10:29:25;;;;;;;59.25;18.50;;;9.00;99.90;;;;;;612294;233;26555;-66
2022/04/15 10:31:52;;;;;;;38.80;16.42;;;8.80;99.90;;;;;;612362;233;26847;-67
2022/04/15 10:34:20;;;;;;;44.97;16.77;;;8.80;99.90;;;;;;612420;233;26565;-66
2022/04/15 10:36:48;;;;;;;47.62;16.35;;;8.90;99.90;;;;;;612868;233;26798;-65
2022/04/15 10:39:19;;;;;;;41.37;14.70;;;9.00;99.90;;;;;;612848;233;26767;-66
2022/04/15 10:42:02;;;;;;;41.17;13.90;;;8.90;99.90;;;;;;612719;235;26569;-67
2022/04/15 10:44:40;;;;;;;27.58;12.00;;;9.10;99.90;;;;;;612624;235;26561;-66
2022/04/15 10:47:10;;;;;;;23.85;11.82;;;9.20;99.90;;;;;;614672;231;26588;-67
2022/04/15 10:49:37;;;;;;;24.63;12.02;;;9.20;99.90;;;;;;612451;233;26838;-67
2022/04/15 10:52:22;;;;;;;27.75;12.57;;;9.70;99.90;;;;;;613476;228;26578;-67
2022/04/15 10:54:48;;;;;;;21.02;10.77;;;9.70;99.90;;;;;;613535;234;26588;-66
2022/04/15 10:57:15;;;;;;;17.98;9.13;;;10.00;99.90;;;;;;618349;231;27302;-65
2022/04/15 11:02:22;;;;;;;22.92;9.32;;;10.40;99.90;;;;;;620882;231;26586;-64
2022/04/15 11:04:50;;;;;;;15.73;8.27;;;10.40;99.90;;;;;;616272;231;26574;-70
2022/04/15 11:07:26;;;;;;;18.12;8.15;;;10.40;99.90;;;;;;614319;231;26835;-70
2022/04/15 11:09:53;;;;;;;12.37;6.82;;;10.30;99.90;;;;;;614742;234;26607;-70
2022/04/15 11:12:30;;;;;;;12.02;7.30;;;10.30;99.90;;;;;;612403;233;26851;-70
2022/04/15 11:14:58;;;;;;;13.82;7.00;;;10.00;99.90;;;;;;613525;231;26962;-70
2022/04/15 11:17:44;;;;;;;7.57;5.72;;;10.00;99.90;;;;;;617062;232;26835;-71
2022/04/15 11:20:12;;;;;;;6.62;4.45;;;9.90;99.90;;;;;;613634;231;26834;-71
2022/04/15 11:22:40;;;;;;;4.90;4.40;;;10.00;99.90;;;;;;619340;231;26560;-71
2022/04/15 11:25:07;;;;;;;6.12;4.15;;;10.10;99.90;;;;;;614743;232;26619;-71
2022/04/15 11:27:35;;;;;;;5.57;4.47;;;10.10;99.90;;;;;;616189;232;26591;-71
2022/04/15 11:30:04;;;;;;;3.50;3.10;;;10.00;99.90;;;;;;620584;231;26613;-72
2022/04/15 11:32:29;;;;;;;4.28;3.40;;;9.80;99.90;;;;;;613852;233;26592;-71
2022/04/15 11:34:56;;;;;;;14.95;3.92;;;9.80;99.90;;;;;;619427;230;26866;-68
2022/04/15 11:37:24;;;;;;;8.60;3.58;;;9.80;99.90;;;;;;619033;230;26601;-69
2022/04/15 11:39:50;;;;;;;6.82;3.30;;;9.70;99.90;;;;;;619763;231;26817;-69
2022/04/15 11:42:18;;;;;;;9.32;3.20;;;9.80;99.90;;;;;;619887;231;26555;-70
2022/04/15 11:44:45;;;;;;;5.22;2.90;;;9.90;99.90;;;;;;613810;233;26574;-71
2022/04/15 11:47:16;;;;;;;3.35;2.55;;;9.90;99.90;;;;;;614192;233;26616;-70
2022/04/15 11:49:43;;;;;;;3.80;2.53;;;9.90;99.90;;;;;;619251;231;26583;-70
2022/04/15 11:52:11;;;;;;;3.45;2.20;;;9.90;99.90;;;;;;613966;231;26789;-70
2022/04/15 11:54:38;;;;;;;2.50;2.30;;;9.90;99.90;;;;;;620954;231;26603;-69
2022/04/15 11:57:05;;;;;;;3.20;2.35;;;9.80;99.90;;;;;;616812;231;26635;-70
2022/04/15 11:59:38;;;;;;;2.78;2.28;;;10.10;99.90;;;;;;612413;233;26830;-70
2022/04/15 12:02:05;;;;;;;6.50;2.20;;;10.30;99.90;;;;;;613228;231;26603;-70
2022/04/15 12:04:33;;;;;;;2.20;1.95;;;10.20;99.90;;;;;;619156;231;26589;-70
2022/04/15 12:07:00;;;;;;;2.10;1.90;;;10.10;99.90;;;;;;614289;233;26844;-70
2022/04/15 12:09:28;;;;;;;3.17;1.83;;;9.90;99.90;;;;;;616015;233;26537;-72
2022/04/15 12:11:55;;;;;;;3.70;1.80;;;10.00;99.90;;;;;;616007;234;26779;-72
2022/04/15 12:14:22;;;;;;;2.70;1.70;;;10.00;99.90;;;;;;615386;233;26524;-72
2022/04/15 12:16:49;;;;;;;1.95;1.55;;;10.10;99.90;;;;;;610990;235;26924;-70
2022/04/15 12:19:16;;;;;;;1.73;1.62;;;10.00;99.90;;;;;;614315;233;26549;-71
2022/04/15 12:21:45;;;;;;;3.87;1.70;;;10.10;99.90;;;;;;615627;233;26842;-70
2022/04/15 12:24:12;;;;;;;2.95;1.50;;;10.00;99.90;;;;;;619744;231;26600;-70
2022/04/15 12:26:42;;;;;;;1.60;1.50;;;9.80;99.90;;;;;;613481;231;26636;-70
2022/04/15 12:31:43;;;;;;;2.53;1.40;;;10.00;99.90;;;;;;613497;232;26568;-69
2022/04/15 12:34:11;;;;;;;1.40;1.30;;;10.00;99.90;;;;;;621399;231;26608;-70
2022/04/15 12:36:41;;;;;;;1.55;1.33;;;10.00;99.90;;;;;;621698;231;26636;-69
2022/04/15 12:39:08;;;;;;;3.25;1.33;;;10.20;99.90;;;;;;618211;231;26567;-69
2022/04/15 12:41:37;;;;;;;1.20;1.10;;;10.20;99.90;;;;;;616019;232;26572;-70
2022/04/15 12:44:14;;;;;;;1.30;1.30;;;10.20;99.90;;;;;;620652;231;26617;-70
2022/04/15 12:46:39;;;;;;;1.52;1.42;;;10.20;99.90;;;;;;615724;233;26647;-70
2022/04/15 12:49:06;;;;;;;1.75;1.27;;;10.30;99.90;;;;;;618720;227;26813;-70
2022/04/15 12:51:36;;;;;;;2.40;1.45;;;10.40;99.90;;;;;;615543;231;26609;-68
2022/04/15 12:54:05;;;;;;;2.67;1.30;;;10.40;99.90;;;;;;613583;231;26746;-72
2022/04/15 12:56:32;;;;;;;1.37;1.27;;;10.50;99.90;;;;;;619135;231;26583;-73
2022/04/15 12:59:02;;;;;;;1.20;1.20;;;10.60;99.90;;;;;;614191;233;26632;-73
2022/04/15 13:01:28;;;;;;;1.75;1.20;;;10.50;99.90;;;;;;613729;233;26589;-73